Terminal Aerodrome Forecast
Issued by NWS Austin/San Antonio, TX

Home | Current Version | Previous Version | Text Only | Print | Product List | Glossary On
Versions: 1 2 3 4 5 6 7 8 9 10 11 12 13 14 15 16 17 18 19 20 21 22 23 24 25
000
FTUS44 KEWX 240700 AAA
TAFSAT
TAF AMD
KSAT 240715Z 2407/2512 17010KT P6SM SCT250
     FM240900 16008KT P6SM BKN012
     FM241000 17010KT P6SM OVC007
     FM241400 19010KT P6SM BKN015
     FM241600 20010KT P6SM BKN025
     FM241900 14005KT P6SM SCT040
     FM250000 04010KT P6SM SCT250=

USA.gov is the U.S. government's official web portal to all federal, state and local government web resources and services.